Time;durP1;ratioP1;P1;durP2;ratioP2;P2;SDS_P1;SDS_P2;PMS_P1;PMS_P2;Temp;Humidity;BMP_temperature;BMP_pressure;BME280_temperature;BME280_humidity;BME280_pressure;Samples;Min_cycle;Max_cycle;Signal;HPM_P1;HPM_P2
2022/03/08 00:02:01;;;;;;;;;;;;;;;;;;5043548;28;19917;-83
2022/03/08 00:04:27;;;;;;;;;;;;;;;;;;5025691;28;19909;-83
2022/03/08 00:06:52;;;;;;;;;;;;;;;;;;5025933;28;19980;-83
2022/03/08 00:09:18;;;;;;;;;;;;;;;;;;5027757;28;19968;-83
2022/03/08 00:11:43;;;;;;;;;;;;;;;;;;5028533;28;19933;-82
2022/03/08 00:14:08;;;;;;;;;;;;;;;;;;5029626;28;19948;-82
2022/03/08 00:16:33;;;;;;;;;;;;;;;;;;5029612;28;19909;-82
2022/03/08 00:18:58;;;;;;;;;;;;;;;;;;5047803;28;19992;-82
2022/03/08 00:21:23;;;;;;;;;;;;;;;;;;5029055;28;20028;-83
2022/03/08 00:23:48;;;;;;;;;;;;;;;;;;5028785;28;20006;-82
2022/03/08 00:26:13;;;;;;;;;;;;;;;;;;5027826;28;19916;-83
2022/03/08 00:28:38;;;;;;;;;;;;;;;;;;5046243;28;19940;-83
2022/03/08 00:31:03;;;;;;;;;;;;;;;;;;5046190;28;19963;-82
2022/03/08 00:33:29;;;;;;;;;;;;;;;;;;5046254;28;19909;-82
2022/03/08 00:35:54;;;;;;;;;;;;;;;;;;5029267;28;20274;-83
2022/03/08 00:38:19;;;;;;;;;;;;;;;;;;5047232;28;19905;-82
2022/03/08 00:40:44;;;;;;;;;;;;;;;;;;5029435;28;19909;-82
2022/03/08 00:43:09;;;;;;;;;;;;;;;;;;5028092;28;19968;-83
2022/03/08 00:45:35;;;;;;;;;;;;;;;;;;5028973;28;19913;-82
2022/03/08 00:48:00;;;;;;;;;;;;;;;;;;5028892;28;19936;-83
2022/03/08 00:50:25;;;;;;;;;;;;;;;;;;5029468;28;19913;-83
2022/03/08 00:52:50;;;;;;;;;;;;;;;;;;5029010;28;19920;-82
2022/03/08 00:55:15;;;;;;;;;;;;;;;;;;5029006;28;19913;-82
2022/03/08 00:57:40;;;;;;;;;;;;;;;;;;5028708;28;19909;-82
2022/03/08 01:00:06;;;;;;;;;;;;;;;;;;5046352;28;20341;-82
2022/03/08 01:02:31;;;;;;;;;;;;;;;;;;5029573;28;19918;-83
2022/03/08 01:04:56;;;;;;;;;;;;;;;;;;5029083;28;19920;-82
2022/03/08 01:07:21;;;;;;;;;;;;;;;;;;5029066;28;19909;-82
2022/03/08 01:09:46;;;;;;;;;;;;;;;;;;5045515;28;19932;-83
2022/03/08 01:12:12;;;;;;;;;;;;;;;;;;5027656;28;19909;-82
2022/03/08 01:14:37;;;;;;;;;;;;;;;;;;5026401;28;20382;-82
2022/03/08 01:17:02;;;;;;;;;;;;;;;;;;5026991;28;20310;-81
2022/03/08 01:19:27;;;;;;;;;;;;;;;;;;5026936;28;20305;-81
2022/03/08 01:21:52;;;;;;;;;;;;;;;;;;5027345;28;19909;-81
2022/03/08 01:24:17;;;;;;;;;;;;;;;;;;5027560;28;19913;-82
2022/03/08 01:26:42;;;;;;;;;;;;;;;;;;5027631;28;19995;-82
2022/03/08 01:29:07;;;;;;;;;;;;;;;;;;5026284;28;20021;-82
2022/03/08 01:31:32;;;;;;;;;;;;;;;;;;5026759;28;19921;-82
2022/03/08 01:33:57;;;;;;;;;;;;;;;;;;5026912;28;20373;-82
2022/03/08 01:36:23;;;;;;;;;;;;;;;;;;5044733;28;20428;-82
2022/03/08 01:38:48;;;;;;;;;;;;;;;;;;5027232;28;19913;-82
2022/03/08 01:41:13;;;;;;;;;;;;;;;;;;5044615;28;19900;-83
2022/03/08 01:43:38;;;;;;;;;;;;;;;;;;5026943;28;19916;-81
2022/03/08 01:46:03;;;;;;;;;;;;;;;;;;5025789;28;19916;-82
2022/03/08 01:48:28;;;;;;;;;;;;;;;;;;5044254;28;19917;-83
2022/03/08 01:50:53;;;;;;;;;;;;;;;;;;5026156;28;19916;-82
2022/03/08 01:53:19;;;;;;;;;;;;;;;;;;5026548;28;19909;-83
2022/03/08 01:55:44;;;;;;;;;;;;;;;;;;5026965;28;19914;-82
2022/03/08 01:58:09;;;;;;;;;;;;;;;;;;5026725;28;19910;-82
2022/03/08 02:00:34;;;;;;;;;;;;;;;;;;5036412;28;19971;-83
2022/03/08 02:02:59;;;;;;;;;;;;;;;;;;5042884;28;19917;-82
2022/03/08 02:05:24;;;;;;;;;;;;;;;;;;5043835;28;19909;-82
2022/03/08 02:07:49;;;;;;;;;;;;;;;;;;5042384;28;19909;-81
2022/03/08 02:10:14;;;;;;;;;;;;;;;;;;5042492;28;19917;-83
2022/03/08 02:12:39;;;;;;;;;;;;;;;;;;5043571;28;19924;-83
2022/03/08 02:15:04;;;;;;;;;;;;;;;;;;5043587;28;19909;-83
2022/03/08 02:17:30;;;;;;;;;;;;;;;;;;5041274;28;19909;-82
2022/03/08 02:19:56;;;;;;;;;;;;;;;;;;5043475;28;19931;-83
2022/03/08 02:22:21;;;;;;;;;;;;;;;;;;5042220;28;19909;-82
2022/03/08 02:24:46;;;;;;;;;;;;;;;;;;5041662;28;19932;-83
2022/03/08 02:27:11;;;;;;;;;;;;;;;;;;5042191;28;19920;-83
2022/03/08 02:29:37;;;;;;;;;;;;;;;;;;5043500;28;19921;-82
2022/03/08 02:32:02;;;;;;;;;;;;;;;;;;5041500;28;20035;-82
2022/03/08 02:34:27;;;;;;;;;;;;;;;;;;5042422;28;20036;-82
2022/03/08 02:36:52;;;;;;;;;;;;;;;;;;5043289;28;19909;-83
2022/03/08 02:39:17;;;;;;;;;;;;;;;;;;5043323;28;19928;-81
2022/03/08 02:41:43;;;;;;;;;;;;;;;;;;5042093;28;20358;-82
2022/03/08 02:44:08;;;;;;;;;;;;;;;;;;5042008;28;19893;-82
2022/03/08 02:46:33;;;;;;;;;;;;;;;;;;5042360;28;19910;-82
2022/03/08 02:48:58;;;;;;;;;;;;;;;;;;5042193;28;19917;-83
2022/03/08 02:51:23;;;;;;;;;;;;;;;;;;5043677;28;19916;-81
2022/03/08 02:53:48;;;;;;;;;;;;;;;;;;5042071;28;19952;-82
2022/03/08 02:56:14;;;;;;;;;;;;;;;;;;5042952;28;19948;-83
2022/03/08 02:58:39;;;;;;;;;;;;;;;;;;5042634;28;20071;-81
2022/03/08 03:01:04;;;;;;;;;;;;;;;;;;5041282;28;19921;-83
2022/03/08 03:03:29;;;;;;;;;;;;;;;;;;5041835;28;19913;-83
2022/03/08 03:05:54;;;;;;;;;;;;;;;;;;5042124;28;19910;-81
2022/03/08 03:08:19;;;;;;;;;;;;;;;;;;5041643;28;19928;-82
2022/03/08 03:10:44;;;;;;;;;;;;;;;;;;5043150;28;20000;-82
2022/03/08 03:13:10;;;;;;;;;;;;;;;;;;5041754;28;19909;-81
2022/03/08 03:15:35;;;;;;;;;;;;;;;;;;5041784;28;19905;-80
2022/03/08 03:18:00;;;;;;;;;;;;;;;;;;5041851;28;19976;-82
2022/03/08 03:20:26;;;;;;;;;;;;;;;;;;5040813;28;19959;-83
2022/03/08 03:22:51;;;;;;;;;;;;;;;;;;5040970;28;20392;-81
2022/03/08 03:25:16;;;;;;;;;;;;;;;;;;5041236;28;19967;-82
2022/03/08 03:27:41;;;;;;;;;;;;;;;;;;5041217;28;19909;-82
2022/03/08 03:30:07;;;;;;;;;;;;;;;;;;5040643;28;19928;-82
2022/03/08 03:32:32;;;;;;;;;;;;;;;;;;5042029;28;19916;-83
2022/03/08 03:34:57;;;;;;;;;;;;;;;;;;5040314;28;19919;-81
2022/03/08 03:37:23;;;;;;;;;;;;;;;;;;5039953;28;19931;-83
2022/03/08 03:39:48;;;;;;;;;;;;;;;;;;5041205;28;20038;-82
2022/03/08 03:42:14;;;;;;;;;;;;;;;;;;5041548;28;19945;-81
2022/03/08 03:44:39;;;;;;;;;;;;;;;;;;5040400;28;20003;-82
2022/03/08 03:47:04;;;;;;;;;;;;;;;;;;5042270;28;19951;-82
2022/03/08 03:49:29;;;;;;;;;;;;;;;;;;5042128;28;19921;-82
2022/03/08 03:51:54;;;;;;;;;;;;;;;;;;5040481;28;19909;-82
2022/03/08 03:54:19;;;;;;;;;;;;;;;;;;5040509;28;20441;-82
2022/03/08 03:56:44;;;;;;;;;;;;;;;;;;5042544;28;19945;-81
2022/03/08 03:59:09;;;;;;;;;;;;;;;;;;5042333;28;19916;-81
2022/03/08 04:01:34;;;;;;;;;;;;;;;;;;5042753;28;19959;-82
2022/03/08 04:04:00;;;;;;;;;;;;;;;;;;5025098;28;19905;-81
2022/03/08 04:06:25;;;;;;;;;;;;;;;;;;5042077;28;19909;-81
2022/03/08 04:08:50;;;;;;;;;;;;;;;;;;5022931;28;19923;-82
2022/03/08 04:11:15;;;;;;;;;;;;;;;;;;5041904;28;19921;-82
2022/03/08 04:13:40;;;;;;;;;;;;;;;;;;5024723;28;19909;-82
2022/03/08 04:16:05;;;;;;;;;;;;;;;;;;5024408;28;19916;-82
2022/03/08 04:18:30;;;;;;;;;;;;;;;;;;5041106;28;19897;-83
2022/03/08 04:20:55;;;;;;;;;;;;;;;;;;5041235;28;19920;-82
2022/03/08 04:23:20;;;;;;;;;;;;;;;;;;5023204;28;19915;-82
2022/03/08 04:25:46;;;;;;;;;;;;;;;;;;5022482;28;19940;-81
2022/03/08 04:28:11;;;;;;;;;;;;;;;;;;5040904;28;19909;-82
2022/03/08 04:30:36;;;;;;;;;;;;;;;;;;5023523;28;20007;-82
2022/03/08 04:33:01;;;;;;;;;;;;;;;;;;5023729;28;19925;-82
2022/03/08 04:35:26;;;;;;;;;;;;;;;;;;5023685;28;19909;-82
2022/03/08 04:37:51;;;;;;;;;;;;;;;;;;5041189;28;19936;-81
2022/03/08 04:40:16;;;;;;;;;;;;;;;;;;5022680;28;19919;-81
2022/03/08 04:42:41;;;;;;;;;;;;;;;;;;5023235;28;19916;-82
2022/03/08 04:45:06;;;;;;;;;;;;;;;;;;5041801;28;19909;-81
2022/03/08 04:47:34;;;;;;;;;;;;;;;;;;5041710;28;20295;-81
2022/03/08 04:49:59;;;;;;;;;;;;;;;;;;5024149;28;19917;-82
2022/03/08 04:52:24;;;;;;;;;;;;;;;;;;5024406;28;19909;-82
2022/03/08 04:54:49;;;;;;;;;;;;;;;;;;5025522;28;19909;-82
2022/03/08 04:57:14;;;;;;;;;;;;;;;;;;5026754;28;19916;-82
2022/03/08 04:59:39;;;;;;;;;;;;;;;;;;5029734;28;19921;-81
2022/03/08 05:02:04;;;;;;;;;;;;;;;;;;5044207;28;20301;-82
2022/03/08 05:04:30;;;;;;;;;;;;;;;;;;5043676;28;19982;-81
2022/03/08 05:06:55;;;;;;;;;;;;;;;;;;5044888;28;19948;-81
2022/03/08 05:09:20;;;;;;;;;;;;;;;;;;5046085;28;19924;-81
2022/03/08 05:11:45;;;;;;;;;;;;;;;;;;5044176;28;19917;-81
2022/03/08 05:14:10;;;;;;;;;;;;;;;;;;5043762;28;19916;-82
2022/03/08 05:16:35;;;;;;;;;;;;;;;;;;5044592;28;19928;-80
2022/03/08 05:19:00;;;;;;;;;;;;;;;;;;5044820;28;19916;-80
2022/03/08 05:21:25;;;;;;;;;;;;;;;;;;5044560;28;19916;-81
2022/03/08 05:23:50;;;;;;;;;;;;;;;;;;5044847;28;19900;-81
2022/03/08 05:26:15;;;;;;;;;;;;;;;;;;5044990;28;19913;-82
2022/03/08 05:28:42;;;;;;;;;;;;;;;;;;5043082;28;20371;-80
2022/03/08 05:31:07;;;;;;;;;;;;;;;;;;5043733;28;19960;-80
2022/03/08 05:33:33;;;;;;;;;;;;;;;;;;5045204;28;19909;-81
2022/03/08 05:35:58;;;;;;;;;;;;;;;;;;5044798;28;19909;-83
2022/03/08 05:38:23;;;;;;;;;;;;;;;;;;5044950;28;19909;-81
2022/03/08 05:40:48;;;;;;;;;;;;;;;;;;5044889;28;19948;-79
2022/03/08 05:43:13;;;;;;;;;;;;;;;;;;5043984;28;19909;-80
2022/03/08 05:45:38;;;;;;;;;;;;;;;;;;5041616;28;19917;-80
2022/03/08 05:48:03;;;;;;;;;;;;;;;;;;5041326;28;20389;-81
2022/03/08 05:50:29;;;;;;;;;;;;;;;;;;5040376;28;20374;-81
2022/03/08 05:52:54;;;;;;;;;;;;;;;;;;5041203;28;19924;-80
2022/03/08 05:55:19;;;;;;;;;;;;;;;;;;5041656;28;19913;-80
2022/03/08 05:57:44;;;;;;;;;;;;;;;;;;5042334;28;20371;-80
2022/03/08 06:00:09;;;;;;;;;;;;;;;;;;5040886;28;20012;-80
2022/03/08 06:02:34;;;;;;;;;;;;;;;;;;5022906;28;19924;-82
2022/03/08 06:04:59;;;;;;;;;;;;;;;;;;5022708;28;20355;-81
2022/03/08 06:07:25;;;;;;;;;;;;;;;;;;5039589;28;20334;-81
2022/03/08 06:09:50;;;;;;;;;;;;;;;;;;5021646;28;20007;-82
2022/03/08 06:12:15;;;;;;;;;;;;;;;;;;5039334;28;19898;-80
2022/03/08 06:14:40;;;;;;;;;;;;;;;;;;5038683;28;19952;-81
2022/03/08 06:17:06;;;;;;;;;;;;;;;;;;5037496;28;20347;-81
2022/03/08 06:19:32;;;;;;;;;;;;;;;;;;5020886;28;20008;-82
2022/03/08 06:21:57;;;;;;;;;;;;;;;;;;5021401;28;19959;-85
2022/03/08 06:24:22;;;;;;;;;;;;;;;;;;5020602;28;20375;-81
2022/03/08 06:26:47;;;;;;;;;;;;;;;;;;5021304;28;20015;-81
2022/03/08 06:29:12;;;;;;;;;;;;;;;;;;5038606;28;19921;-82
2022/03/08 06:31:37;;;;;;;;;;;;;;;;;;5039405;28;19917;-84
2022/03/08 06:34:02;;;;;;;;;;;;;;;;;;5019872;28;19956;-83
2022/03/08 06:36:27;;;;;;;;;;;;;;;;;;5021325;28;19909;-83
2022/03/08 06:38:52;;;;;;;;;;;;;;;;;;5039433;28;19912;-85
2022/03/08 06:41:18;;;;;;;;;;;;;;;;;;5039090;28;19932;-82
2022/03/08 06:43:43;;;;;;;;;;;;;;;;;;5021434;28;19912;-83
2022/03/08 06:46:08;;;;;;;;;;;;;;;;;;5038771;28;19909;-81
2022/03/08 06:48:34;;;;;;;;;;;;;;;;;;5037510;28;20286;-82
2022/03/08 06:50:59;;;;;;;;;;;;;;;;;;5037569;28;20007;-80
2022/03/08 06:53:24;;;;;;;;;;;;;;;;;;5037738;28;19909;-81
2022/03/08 06:55:49;;;;;;;;;;;;;;;;;;5020906;28;19910;-82
2022/03/08 06:58:14;;;;;;;;;;;;;;;;;;5038053;28;20330;-84
2022/03/08 07:00:39;;;;;;;;;;;;;;;;;;5031023;28;19944;-83
2022/03/08 07:03:04;;;;;;;;;;;;;;;;;;5038147;28;19917;-83
2022/03/08 07:05:30;;;;;;;;;;;;;;;;;;5036598;28;19916;-87
2022/03/08 07:07:55;;;;;;;;;;;;;;;;;;5037631;28;19913;-86
2022/03/08 07:10:20;;;;;;;;;;;;;;;;;;5039639;28;19917;-85
2022/03/08 07:12:45;;;;;;;;;;;;;;;;;;5038454;28;19909;-86
2022/03/08 07:15:11;;;;;;;;;;;;;;;;;;5036828;28;19920;-85
2022/03/08 07:17:36;;;;;;;;;;;;;;;;;;5036080;28;19897;-84
2022/03/08 07:20:01;;;;;;;;;;;;;;;;;;5038031;28;19984;-84
2022/03/08 07:22:26;;;;;;;;;;;;;;;;;;5037339;28;19913;-85
2022/03/08 07:24:51;;;;;;;;;;;;;;;;;;5038174;28;19909;-85
2022/03/08 07:27:16;;;;;;;;;;;;;;;;;;5037594;28;19913;-82
2022/03/08 07:29:43;;;;;;;;;;;;;;;;;;5035045;28;19925;-86
2022/03/08 07:32:09;;;;;;;;;;;;;;;;;;5036911;28;19925;-83
2022/03/08 07:34:34;;;;;;;;;;;;;;;;;;5036713;28;19905;-84
2022/03/08 07:36:59;;;;;;;;;;;;;;;;;;5037408;28;19963;-81
2022/03/08 07:39:24;;;;;;;;;;;;;;;;;;5035718;28;19905;-87
2022/03/08 07:41:49;;;;;;;;;;;;;;;;;;5037041;28;19913;-84
2022/03/08 07:44:14;;;;;;;;;;;;;;;;;;5038166;28;20432;-87
2022/03/08 07:46:39;;;;;;;;;;;;;;;;;;5036750;28;19909;-86
2022/03/08 07:49:05;;;;;;;;;;;;;;;;;;5037224;28;20087;-78
2022/03/08 07:51:30;;;;;;;;;;;;;;;;;;5037485;28;20004;-84
2022/03/08 07:53:55;;;;;;;;;;;;;;;;;;5037291;28;19909;-80
2022/03/08 07:56:20;;;;;;;;;;;;;;;;;;5036272;28;19909;-85
2022/03/08 07:58:46;;;;;;;;;;;;;;;;;;5030695;28;20397;-81
2022/03/08 08:01:11;;;;;;;;;;;;;;;;;;5001595;28;19985;-83
2022/03/08 08:03:37;;;;;;;;;;;;;;;;;;4998336;28;19913;-83
2022/03/08 08:06:03;;;;;;;;;;;;;;;;;;4996882;28;19910;-83
2022/03/08 08:08:28;;;;;;;;;;;;;;;;;;4996287;28;20013;-84
2022/03/08 08:10:53;;;;;;;;;;;;;;;;;;4997784;28;19964;-83
2022/03/08 08:13:18;;;;;;;;;;;;;;;;;;4996870;28;19910;-81
2022/03/08 08:15:43;;;;;;;;;;;;;;;;;;4997007;28;20486;-83
2022/03/08 08:18:08;;;;;;;;;;;;;;;;;;4998373;28;19933;-83
2022/03/08 08:20:34;;;;;;;;;;;;;;;;;;4997224;28;20004;-83
2022/03/08 08:22:59;;;;;;;;;;;;;;;;;;4997829;28;19933;-82
2022/03/08 08:25:24;;;;;;;;;;;;;;;;;;4995714;28;19909;-81
2022/03/08 08:27:49;;;;;;;;;;;;;;;;;;4997189;28;19910;-83
2022/03/08 08:30:14;;;;;;;;;;;;;;;;;;4998753;28;19917;-83
2022/03/08 08:32:39;;;;;;;;;;;;;;;;;;5001854;28;19925;-82
2022/03/08 08:35:04;;;;;;;;;;;;;;;;;;5000484;28;19914;-82
2022/03/08 08:37:29;;;;;;;;;;;;;;;;;;5001390;28;19904;-81
2022/03/08 08:39:55;;;;;;;;;;;;;;;;;;5001401;28;19910;-83
2022/03/08 08:42:20;;;;;;;;;;;;;;;;;;4998802;28;19914;-79
2022/03/08 08:44:45;;;;;;;;;;;;;;;;;;5000037;28;20000;-81
2022/03/08 08:47:10;;;;;;;;;;;;;;;;;;4999750;28;20310;-81
2022/03/08 08:49:35;;;;;;;;;;;;;;;;;;4999618;28;20371;-80
2022/03/08 08:52:00;;;;;;;;;;;;;;;;;;4999889;28;19909;-80
2022/03/08 08:54:27;;;;;;;;;;;;;;;;;;5000463;28;19921;-81
2022/03/08 08:56:52;;;;;;;;;;;;;;;;;;5000885;28;19932;-82
2022/03/08 08:59:17;;;;;;;;;;;;;;;;;;4999138;28;20379;-79
2022/03/08 09:01:42;;;;;;;;;;;;;;;;;;4999433;28;19918;-80
2022/03/08 09:04:07;;;;;;;;;;;;;;;;;;5000785;28;19910;-81
2022/03/08 09:06:33;;;;;;;;;;;;;;;;;;5000015;28;19992;-81
2022/03/08 09:08:58;;;;;;;;;;;;;;;;;;5000084;28;20429;-81
2022/03/08 09:11:24;;;;;;;;;;;;;;;;;;4998672;28;19910;-81
2022/03/08 09:13:49;;;;;;;;;;;;;;;;;;4999632;28;19948;-81
2022/03/08 09:16:15;;;;;;;;;;;;;;;;;;5023098;28;19984;-81
2022/03/08 09:18:40;;;;;;;;;;;;;;;;;;5019627;28;19954;-81
2022/03/08 09:21:05;;;;;;;;;;;;;;;;;;5029545;28;19909;-82
2022/03/08 09:23:30;;;;;;;;;;;;;;;;;;5017856;28;20274;-81
2022/03/08 09:25:55;;;;;;;;;;;;;;;;;;5019035;28;20004;-81
2022/03/08 09:28:20;;;;;;;;;;;;;;;;;;5033251;28;19916;-81
2022/03/08 09:30:48;;;;;;;;;;;;;;;;;;5028347;28;19944;-83
2022/03/08 09:33:13;;;;;;;;;;;;;;;;;;5021120;28;19924;-80
2022/03/08 09:35:38;;;;;;;;;;;;;;;;;;5019394;28;19937;-82
2022/03/08 09:38:03;;;;;;;;;;;;;;;;;;5029242;28;19976;-83
2022/03/08 09:40:28;;;;;;;;;;;;;;;;;;5026739;28;19916;-81
2022/03/08 09:42:53;;;;;;;;;;;;;;;;;;5019374;28;19909;-82
2022/03/08 09:45:18;;;;;;;;;;;;;;;;;;5027517;28;20363;-81
2022/03/08 09:47:43;;;;;;;;;;;;;;;;;;5029302;28;19919;-82
2022/03/08 09:50:09;;;;;;;;;;;;;;;;;;5028127;28;19948;-81
2022/03/08 09:52:34;;;;;;;;;;;;;;;;;;5028451;28;19949;-81
2022/03/08 09:54:59;;;;;;;;;;;;;;;;;;5030618;28;19910;-80
2022/03/08 09:57:25;;;;;;;;;;;;;;;;;;5019574;28;19916;-82
2022/03/08 09:59:51;;;;;;;;;;;;;;;;;;5025282;28;19909;-80
2022/03/08 10:02:16;;;;;;;;;;;;;;;;;;5027221;28;19921;-81
2022/03/08 10:04:41;;;;;;;;;;;;;;;;;;5029576;28;19952;-79
2022/03/08 10:07:06;;;;;;;;;;;;;;;;;;5028393;28;19944;-81
2022/03/08 10:09:31;;;;;;;;;;;;;;;;;;5035886;28;20013;-81
2022/03/08 10:11:56;;;;;;;;;;;;;;;;;;5028248;28;19913;-80
2022/03/08 10:14:24;;;;;;;;;;;;;;;;;;5034412;28;19916;-81
2022/03/08 10:16:52;;;;;;;;;;;;;;;;;;5028928;28;20278;-81
2022/03/08 10:19:17;;;;;;;;;;;;;;;;;;5034439;28;19910;-82
2022/03/08 10:21:42;;;;;;;;;;;;;;;;;;5036718;28;19909;-80
2022/03/08 10:24:08;;;;;;;;;;;;;;;;;;5035335;28;19988;-82
2022/03/08 10:26:33;;;;;;;;;;;;;;;;;;5023324;28;19909;-81
2022/03/08 10:28:59;;;;;;;;;;;;;;;;;;5028815;28;19917;-80
2022/03/08 10:31:24;;;;;;;;;;;;;;;;;;5034150;28;20500;-80
2022/03/08 10:33:50;;;;;;;;;;;;;;;;;;5027829;28;19897;-81
2022/03/08 10:36:15;;;;;;;;;;;;;;;;;;5035439;28;19913;-78
2022/03/08 10:38:41;;;;;;;;;;;;;;;;;;5037444;28;19913;-80
2022/03/08 10:41:06;;;;;;;;;;;;;;;;;;5024200;28;19909;-81
2022/03/08 10:43:31;;;;;;;;;;;;;;;;;;5026716;28;19917;-81
2022/03/08 10:45:56;;;;;;;;;;;;;;;;;;5029923;28;19924;-81
2022/03/08 10:48:21;;;;;;;;;;;;;;;;;;5036383;28;20370;-81
2022/03/08 10:50:46;;;;;;;;;;;;;;;;;;5035472;28;19936;-81
2022/03/08 10:53:11;;;;;;;;;;;;;;;;;;5035151;28;19914;-81
2022/03/08 10:55:36;;;;;;;;;;;;;;;;;;5017754;28;19956;-82
2022/03/08 10:58:01;;;;;;;;;;;;;;;;;;4999439;28;20375;-83
2022/03/08 11:00:27;;;;;;;;;;;;;;;;;;5014388;28;19968;-82
2022/03/08 11:02:52;;;;;;;;;;;;;;;;;;4999394;28;19925;-81
2022/03/08 11:05:17;;;;;;;;;;;;;;;;;;5014093;28;19910;-81
2022/03/08 11:07:42;;;;;;;;;;;;;;;;;;4998268;28;19917;-81
2022/03/08 11:10:11;;;;;;;;;;;;;;;;;;5013900;28;19925;-80
2022/03/08 11:12:36;;;;;;;;;;;;;;;;;;4998692;28;20012;-82
2022/03/08 11:15:02;;;;;;;;;;;;;;;;;;5013679;28;19953;-82
2022/03/08 11:17:27;;;;;;;;;;;;;;;;;;5014560;28;19913;-81
2022/03/08 11:19:52;;;;;;;;;;;;;;;;;;5000385;28;19910;-81
2022/03/08 11:22:17;;;;;;;;;;;;;;;;;;4999886;28;19953;-81
2022/03/08 11:24:42;;;;;;;;;;;;;;;;;;5014361;28;20364;-81
2022/03/08 11:27:07;;;;;;;;;;;;;;;;;;5014542;28;19910;-79
2022/03/08 11:29:32;;;;;;;;;;;;;;;;;;5013927;28;20012;-81
2022/03/08 11:31:59;;;;;;;;;;;;;;;;;;5014358;28;20153;-80
2022/03/08 11:34:25;;;;;;;;;;;;;;;;;;5014753;28;19910;-82
2022/03/08 11:36:50;;;;;;;;;;;;;;;;;;5014042;28;19909;-81
2022/03/08 11:39:16;;;;;;;;;;;;;;;;;;4999046;28;19910;-82
2022/03/08 11:41:41;;;;;;;;;;;;;;;;;;5014791;28;19910;-82
2022/03/08 11:44:06;;;;;;;;;;;;;;;;;;5013660;28;19914;-80
2022/03/08 11:46:31;;;;;;;;;;;;;;;;;;4998104;28;19906;-79
2022/03/08 11:48:56;;;;;;;;;;;;;;;;;;5013733;28;19922;-81
2022/03/08 11:51:22;;;;;;;;;;;;;;;;;;4999015;28;19916;-82
2022/03/08 11:53:47;;;;;;;;;;;;;;;;;;5016426;28;19918;-80
2022/03/08 11:56:12;;;;;;;;;;;;;;;;;;5015537;28;19898;-80
2022/03/08 11:58:37;;;;;;;;;;;;;;;;;;5016733;28;19952;-81
2022/03/08 12:01:02;;;;;;;;;;;;;;;;;;5014684;28;19922;-83
2022/03/08 12:03:27;;;;;;;;;;;;;;;;;;5014285;28;19914;-80
2022/03/08 12:05:52;;;;;;;;;;;;;;;;;;5013146;28;19936;-82
2022/03/08 12:08:18;;;;;;;;;;;;;;;;;;5014767;28;19952;-84
2022/03/08 12:10:43;;;;;;;;;;;;;;;;;;5013713;28;19977;-81
2022/03/08 12:13:08;;;;;;;;;;;;;;;;;;5013610;28;19916;-83
2022/03/08 12:15:33;;;;;;;;;;;;;;;;;;5015107;28;19933;-85
2022/03/08 12:17:58;;;;;;;;;;;;;;;;;;4998116;28;19914;-84
2022/03/08 12:20:23;;;;;;;;;;;;;;;;;;4999496;28;19964;-83
2022/03/08 12:22:48;;;;;;;;;;;;;;;;;;5013650;28;19977;-82
2022/03/08 12:25:14;;;;;;;;;;;;;;;;;;5014941;28;20367;-84
2022/03/08 12:27:39;;;;;;;;;;;;;;;;;;5000004;28;19900;-79
2022/03/08 12:30:04;;;;;;;;;;;;;;;;;;5014953;28;20008;-83
2022/03/08 12:32:29;;;;;;;;;;;;;;;;;;5013797;28;20008;-87
2022/03/08 12:34:54;;;;;;;;;;;;;;;;;;5014033;28;19982;-86
2022/03/08 12:37:19;;;;;;;;;;;;;;;;;;5014231;28;19917;-82
2022/03/08 12:39:48;;;;;;;;;;;;;;;;;;5013957;28;19917;-83
2022/03/08 12:42:13;;;;;;;;;;;;;;;;;;4999080;28;19914;-84
2022/03/08 12:44:38;;;;;;;;;;;;;;;;;;5013458;28;19982;-82
2022/03/08 12:47:03;;;;;;;;;;;;;;;;;;5013877;28;20282;-83
2022/03/08 12:49:28;;;;;;;;;;;;;;;;;;5011649;28;19925;-83
2022/03/08 12:51:54;;;;;;;;;;;;;;;;;;4997338;28;19909;-83
2022/03/08 12:54:19;;;;;;;;;;;;;;;;;;5011743;28;19910;-83
2022/03/08 12:56:44;;;;;;;;;;;;;;;;;;4996182;28;19910;-85
2022/03/08 12:59:09;;;;;;;;;;;;;;;;;;5011331;28;19909;-84
2022/03/08 13:01:35;;;;;;;;;;;;;;;;;;4994375;28;19926;-81
2022/03/08 13:04:00;;;;;;;;;;;;;;;;;;4997095;28;19916;-82
2022/03/08 13:06:25;;;;;;;;;;;;;;;;;;4994843;28;19914;-82
2022/03/08 13:08:50;;;;;;;;;;;;;;;;;;4996154;28;19918;-82
2022/03/08 13:11:16;;;;;;;;;;;;;;;;;;4997087;28;19917;-81
2022/03/08 13:13:41;;;;;;;;;;;;;;;;;;4996700;28;19910;-83
2022/03/08 13:16:06;;;;;;;;;;;;;;;;;;4999460;28;19917;-83
2022/03/08 13:18:35;;;;;;;;;;;;;;;;;;5000442;28;20367;-82
2022/03/08 13:21:00;;;;;;;;;;;;;;;;;;4999402;28;19914;-82
2022/03/08 13:23:25;;;;;;;;;;;;;;;;;;4999462;28;20427;-82
2022/03/08 13:25:50;;;;;;;;;;;;;;;;;;5000942;28;19910;-79
2022/03/08 13:28:15;;;;;;;;;;;;;;;;;;5003277;28;19918;-82
2022/03/08 13:30:41;;;;;;;;;;;;;;;;;;5003082;28;19953;-82
2022/03/08 13:33:06;;;;;;;;;;;;;;;;;;4999401;28;20356;-82
2022/03/08 13:35:31;;;;;;;;;;;;;;;;;;4999063;28;20315;-80
2022/03/08 13:37:56;;;;;;;;;;;;;;;;;;4998487;28;19917;-79
2022/03/08 13:40:21;;;;;;;;;;;;;;;;;;4998804;28;19910;-80
2022/03/08 13:42:46;;;;;;;;;;;;;;;;;;4999915;28;19925;-82
2022/03/08 13:45:11;;;;;;;;;;;;;;;;;;5000431;28;19910;-83
2022/03/08 13:47:36;;;;;;;;;;;;;;;;;;4999192;28;19925;-84
2022/03/08 13:50:01;;;;;;;;;;;;;;;;;;4999940;28;20024;-84
2022/03/08 13:52:26;;;;;;;;;;;;;;;;;;4998636;28;19910;-82
2022/03/08 13:54:52;;;;;;;;;;;;;;;;;;4997488;28;19913;-82
2022/03/08 13:57:17;;;;;;;;;;;;;;;;;;4999492;28;19924;-83
2022/03/08 13:59:42;;;;;;;;;;;;;;;;;;5001617;28;20326;-82
2022/03/08 14:02:07;;;;;;;;;;;;;;;;;;5015662;28;19921;-82
2022/03/08 14:04:32;;;;;;;;;;;;;;;;;;5000565;28;19910;-83
2022/03/08 14:06:57;;;;;;;;;;;;;;;;;;5014835;28;19910;-84
2022/03/08 14:09:22;;;;;;;;;;;;;;;;;;5014207;28;19961;-82
2022/03/08 14:11:47;;;;;;;;;;;;;;;;;;5013583;28;19910;-84
2022/03/08 14:14:13;;;;;;;;;;;;;;;;;;5014415;28;19910;-84
2022/03/08 14:16:38;;;;;;;;;;;;;;;;;;5013703;28;19916;-83
2022/03/08 14:19:05;;;;;;;;;;;;;;;;;;4999065;28;20355;-83
2022/03/08 14:21:30;;;;;;;;;;;;;;;;;;5014081;28;19925;-84
2022/03/08 14:23:55;;;;;;;;;;;;;;;;;;5014093;28;19917;-83
2022/03/08 14:26:21;;;;;;;;;;;;;;;;;;4997475;28;19910;-82
2022/03/08 14:28:48;;;;;;;;;;;;;;;;;;5011828;28;20363;-83
2022/03/08 14:31:13;;;;;;;;;;;;;;;;;;5013588;28;19918;-84
2022/03/08 14:33:38;;;;;;;;;;;;;;;;;;5014054;28;19920;-83
2022/03/08 14:36:03;;;;;;;;;;;;;;;;;;4998908;28;19924;-84
2022/03/08 14:38:28;;;;;;;;;;;;;;;;;;4999106;28;19909;-84
2022/03/08 14:40:53;;;;;;;;;;;;;;;;;;4999646;28;20314;-84
2022/03/08 14:43:19;;;;;;;;;;;;;;;;;;5013804;28;19910;-82
2022/03/08 14:45:44;;;;;;;;;;;;;;;;;;5013865;28;20356;-83
2022/03/08 14:48:09;;;;;;;;;;;;;;;;;;5015073;28;19909;-83
2022/03/08 14:50:34;;;;;;;;;;;;;;;;;;5000529;28;19922;-85
2022/03/08 14:52:59;;;;;;;;;;;;;;;;;;5015849;28;19909;-83
2022/03/08 14:55:25;;;;;;;;;;;;;;;;;;5000052;28;19910;-83
2022/03/08 14:57:51;;;;;;;;;;;;;;;;;;5023587;28;20267;-83
2022/03/08 15:00:16;;;;;;;;;;;;;;;;;;5026588;28;19925;-81
2022/03/08 15:02:43;;;;;;;;;;;;;;;;;;5025369;28;19918;-81
2022/03/08 15:05:08;;;;;;;;;;;;;;;;;;5034901;28;20015;-82
2022/03/08 15:07:33;;;;;;;;;;;;;;;;;;5037140;28;19956;-81
2022/03/08 15:09:58;;;;;;;;;;;;;;;;;;5037260;28;20286;-81
2022/03/08 15:12:23;;;;;;;;;;;;;;;;;;5037928;28;19916;-81
2022/03/08 15:14:49;;;;;;;;;;;;;;;;;;5036363;28;19909;-81
2022/03/08 15:17:18;;;;;;;;;;;;;;;;;;5037170;28;19916;-81
2022/03/08 15:19:44;;;;;;;;;;;;;;;;;;5037435;28;19924;-81
2022/03/08 15:22:10;;;;;;;;;;;;;;;;;;5037347;28;19915;-82
2022/03/08 15:24:35;;;;;;;;;;;;;;;;;;5026348;28;20283;-80
2022/03/08 15:27:00;;;;;;;;;;;;;;;;;;5015054;28;20008;-80
2022/03/08 15:29:26;;;;;;;;;;;;;;;;;;5034237;28;19917;-83
2022/03/08 15:31:51;;;;;;;;;;;;;;;;;;5035165;28;19925;-82
2022/03/08 15:34:16;;;;;;;;;;;;;;;;;;5017168;28;19914;-83
2022/03/08 15:36:41;;;;;;;;;;;;;;;;;;5027026;28;20480;-83
2022/03/08 15:39:06;;;;;;;;;;;;;;;;;;5032741;28;20008;-82
2022/03/08 15:41:31;;;;;;;;;;;;;;;;;;5020705;28;19937;-82
2022/03/08 15:43:56;;;;;;;;;;;;;;;;;;5025499;28;19920;-82
2022/03/08 15:46:21;;;;;;;;;;;;;;;;;;5034398;28;20359;-81
2022/03/08 15:48:47;;;;;;;;;;;;;;;;;;5032929;28;20437;-80
2022/03/08 15:51:12;;;;;;;;;;;;;;;;;;5024927;28;19917;-81
2022/03/08 15:53:37;;;;;;;;;;;;;;;;;;5034649;28;19923;-82
2022/03/08 15:56:02;;;;;;;;;;;;;;;;;;5032830;28;19909;-81
2022/03/08 15:58:27;;;;;;;;;;;;;;;;;;5027762;28;19913;-82
2022/03/08 16:00:52;;;;;;;;;;;;;;;;;;5022346;28;19909;-83
2022/03/08 16:03:18;;;;;;;;;;;;;;;;;;5014861;28;19963;-82
2022/03/08 16:05:43;;;;;;;;;;;;;;;;;;5012264;28;19953;-82
2022/03/08 16:08:08;;;;;;;;;;;;;;;;;;5014311;28;19909;-82
2022/03/08 16:10:33;;;;;;;;;;;;;;;;;;5018776;28;19926;-81
2022/03/08 16:13:00;;;;;;;;;;;;;;;;;;5009851;28;20298;-82
2022/03/08 16:15:25;;;;;;;;;;;;;;;;;;5014098;28;19910;-82
2022/03/08 16:17:50;;;;;;;;;;;;;;;;;;5016909;28;19909;-81
2022/03/08 16:20:15;;;;;;;;;;;;;;;;;;5004962;28;19909;-80
2022/03/08 16:22:40;;;;;;;;;;;;;;;;;;5014322;28;19948;-80
2022/03/08 16:25:05;;;;;;;;;;;;;;;;;;5030312;28;19963;-81
2022/03/08 16:27:30;;;;;;;;;;;;;;;;;;5012892;28;20024;-82
2022/03/08 16:29:55;;;;;;;;;;;;;;;;;;5025264;28;19928;-80
2022/03/08 16:32:20;;;;;;;;;;;;;;;;;;5006862;28;19908;-82